CheckWX is a tool to help pilots better visualize weather data.  It is not intended as a substitute for an official pre-flight weather briefing.

18:51:08 UTC

CYQR TAF
Regina International Airport
Regina, Canada
TAF CYQR 281739Z 2818/2918 28008KT 2SM BR OVC004 TEMPO 2818/2820 6SM BR BKN006 FM282000 28008KT P6SM OVC008 TEMPO 2820/2903 3SM BR OVC005 FM290300 VRB03KT P6SM OVC006 TEMPO 2903/2908 2SM BR OVC004 FM290800 VRB03KT 2SM BR OVC004 RMK NXT FCST BY 290000Z

Jan-28@
18:00 UTC

Jan-28 @ 18:00 UTC

Jan-28@
20:00 UTC

Jan-28 @ 20:00 UTC

TAF CYQR 281739Z 2818/2918 28008KT 2SM BR OVC004
Wind
  • 280° at 8 KTS
Conditions
Mist
Cloud Levels
  • Overcast at 400' AGL

Jan-28@
18:00 UTC

Jan-28 @ 18:00 UTC

Jan-28@
20:00 UTC

Jan-28 @ 20:00 UTC

TEMPO 2818/2820 6SM BR BKN006

Temporary

Temporary Changes expected for less than half the time period

Conditions
Mist
Cloud Levels
  • Broken at 600' AGL

Jan-28@
20:00 UTC

Jan-28 @ 20:00 UTC

Jan-29@
03:00 UTC

Jan-29 @ 03:00 UTC

FM282000 28008KT P6SM OVC008

From

From Standard forecast or significant change

Wind
  • 280° at 8 KTS
Cloud Levels
  • Overcast at 800' AGL

Jan-28@
20:00 UTC

Jan-28 @ 20:00 UTC

Jan-29@
03:00 UTC

Jan-29 @ 03:00 UTC

TEMPO 2820/2903 3SM BR OVC005

Temporary

Temporary Changes expected for less than half the time period

Conditions
Mist
Cloud Levels
  • Overcast at 500' AGL

Jan-29@
03:00 UTC

Jan-29 @ 03:00 UTC

Jan-29@
08:00 UTC

Jan-29 @ 08:00 UTC

FM290300 VRB03KT P6SM OVC006

From

From Standard forecast or significant change

Wind
  • Variable at 3 KTS
Cloud Levels
  • Overcast at 600' AGL

Jan-29@
03:00 UTC

Jan-29 @ 03:00 UTC

Jan-29@
08:00 UTC

Jan-29 @ 08:00 UTC

TEMPO 2903/2908 2SM BR OVC004

Temporary

Temporary Changes expected for less than half the time period

Conditions
Mist
Cloud Levels
  • Overcast at 400' AGL

Jan-29@
08:00 UTC

Jan-29 @ 08:00 UTC

Jan-29@
18:00 UTC

Jan-29 @ 18:00 UTC

FM290800 VRB03KT 2SM BR OVC004 RMK NXT FCST BY 290000Z

From

From Standard forecast or significant change

Wind
  • Variable at 3 KTS
Conditions
Mist
Cloud Levels
  • Overcast at 400' AGL